Decoded Metar for KTOL (TOLEDO in OH, USA) (IATA:TOL) | Meteo·Mobile Aviation Weather
aviador You're here:

KTOL Decoded Metar

TOLEDO in OH, USA
Report Time2019-10-21 07:52:00
UTC Time2019-10-21 08:12:43
Flight Rules vfr VFR
WindVRB at 04 kt
Visibility9999 m
Phenomena:N/A
Clouds:Overcast 065 Hf
Expected CloudBase > 2,400 ft AGL from Temp-Dew spread
Ceiling6,500 ft
Temp13°C (ISA -1)
Dew Point07°C (67% RH)
AAT10.9°C
QNH1014 hPa
Density Alt719 ft
Elevation689 ft
Report Wrong Elevation
Raw Report
KTOL 210752Z VRB04KT 10SM OVC065 13/07 A2993 RMK AO2 SLP131
T01280072=

Extra information for KTOL:More info

Metar Taf Metar & Taf Last 4 Metars F.Rules Stats Wind Profile Meteogram Temp Stats Airport Information Weather charts Add Link Nearby VenuesMetar ALERT Operation Metar Decoded Social comments

AIRNAV info for KTOL